Time;durP1;ratioP1;P1;durP2;ratioP2;P2;SDS_P1;SDS_P2;PMS_P1;PMS_P2;Temp;Humidity;BMP_temperature;BMP_pressure;BME280_temperature;BME280_humidity;BME280_pressure;Samples;Min_cycle;Max_cycle;Signal;HPM_P1;HPM_P2
2023/03/11 00:00:01;;;;;;;1.57;0.70;;;18.10;39.50;;;;;;4989666;28;20911;-75
2023/03/11 00:02:26;;;;;;;1.00;0.90;;;18.10;39.50;;;;;;4993291;28;20247;-76
2023/03/11 00:04:52;;;;;;;0.80;0.70;;;18.10;39.50;;;;;;4996288;28;20334;-77
2023/03/11 00:07:18;;;;;;;1.13;1.03;;;18.10;39.50;;;;;;4995978;28;20234;-75
2023/03/11 00:09:43;;;;;;;0.70;0.70;;;18.10;39.50;;;;;;4973662;28;20564;-74
2023/03/11 00:12:09;;;;;;;0.80;0.70;;;18.10;39.50;;;;;;4989951;28;20980;-77
2023/03/11 00:14:34;;;;;;;0.90;0.80;;;18.10;39.50;;;;;;4989485;28;20933;-74
2023/03/11 00:17:00;;;;;;;0.90;0.80;;;18.10;39.50;;;;;;4984813;28;20260;-77
2023/03/11 00:19:25;;;;;;;0.80;0.80;;;18.10;39.50;;;;;;4986289;28;20255;-76
2023/03/11 00:21:51;;;;;;;0.80;0.70;;;18.10;39.50;;;;;;4999393;28;20227;-77
2023/03/11 00:24:17;;;;;;;0.77;0.60;;;18.10;39.60;;;;;;4993306;28;20235;-77
2023/03/11 00:26:43;;;;;;;1.37;0.60;;;18.10;39.50;;;;;;4989866;28;20234;-77
2023/03/11 00:29:08;;;;;;;0.80;0.80;;;18.10;39.50;;;;;;4997073;28;20470;-76
2023/03/11 00:31:34;;;;;;;1.00;0.60;;;18.10;39.50;;;;;;4984303;28;20323;-77
2023/03/11 00:33:59;;;;;;;0.70;0.60;;;18.10;40.30;;;;;;4985272;28;20968;-76
2023/03/11 00:36:32;;;;;;;0.70;0.60;;;18.10;39.50;;;;;;4992171;28;20223;-76
2023/03/11 00:38:59;;;;;;;0.90;0.80;;;18.10;39.70;;;;;;4977732;28;20235;-76
2023/03/11 00:41:24;;;;;;;0.83;0.70;;;18.10;39.50;;;;;;4979876;28;20507;-75
2023/03/11 00:43:50;;;;;;;1.00;0.90;;;18.10;39.50;;;;;;4979882;28;20785;-74
2023/03/11 00:46:18;;;;;;;0.90;0.80;;;18.10;39.50;;;;;;4995788;28;20955;-71
2023/03/11 00:48:43;;;;;;;0.87;0.60;;;18.10;39.50;;;;;;4997170;28;20242;-76
2023/03/11 00:51:15;;;;;;;0.80;0.80;;;18.10;39.50;;;;;;5000052;28;20934;-73
2023/03/11 00:53:41;;;;;;;0.90;0.70;;;18.10;39.50;;;;;;4999941;28;20227;-76
2023/03/11 00:56:09;;;;;;;1.10;0.80;;;18.10;39.50;;;;;;5000890;28;21055;-77
2023/03/11 00:58:34;;;;;;;1.03;0.63;;;18.10;39.50;;;;;;4994189;28;20463;-76
2023/03/11 01:01:05;;;;;;;0.70;0.70;;;18.10;39.50;;;;;;4997406;28;20460;-76
2023/03/11 01:03:31;;;;;;;0.70;0.70;;;18.10;39.50;;;;;;4981451;28;20223;-74
2023/03/11 01:05:56;;;;;;;1.40;0.80;;;18.10;39.50;;;;;;4992423;28;20479;-75
2023/03/11 01:08:22;;;;;;;1.63;1.53;;;18.10;39.50;;;;;;4994642;28;20571;-76
2023/03/11 01:10:47;;;;;;;0.80;0.70;;;18.10;39.40;;;;;;4993551;28;20617;-76
2023/03/11 01:13:13;;;;;;;0.70;0.67;;;18.10;39.40;;;;;;4985760;28;20227;-72
2023/03/11 01:15:38;;;;;;;0.90;0.80;;;18.10;39.50;;;;;;4990819;28;20219;-75
2023/03/11 01:18:05;;;;;;;0.93;0.60;;;18.10;39.40;;;;;;4984903;28;20234;-76
2023/03/11 01:20:31;;;;;;;1.10;0.80;;;18.10;39.50;;;;;;4990850;28;20251;-75
2023/03/11 01:22:58;;;;;;;0.63;0.60;;;18.10;39.50;;;;;;4996905;28;22302;-75
2023/03/11 01:25:24;;;;;;;1.33;0.70;;;18.10;39.50;;;;;;4996282;28;20223;-76
2023/03/11 01:27:50;;;;;;;1.23;0.70;;;18.10;39.50;;;;;;4996152;28;21037;-74
2023/03/11 01:30:19;;;;;;;0.80;0.60;;;18.10;38.80;;;;;;4987219;28;20431;-77
2023/03/11 01:32:44;;;;;;;0.77;0.70;;;18.10;39.50;;;;;;4993837;28;20219;-76
2023/03/11 01:35:15;;;;;;;0.80;0.80;;;18.10;39.40;;;;;;4995899;28;20471;-76
2023/03/11 01:37:41;;;;;;;1.00;0.77;;;18.10;39.50;;;;;;4982257;28;20555;-76
2023/03/11 01:40:13;;;;;;;1.10;0.87;;;18.10;39.40;;;;;;4982563;28;20483;-73
2023/03/11 01:42:39;;;;;;;0.80;0.60;;;18.10;39.50;;;;;;4992488;28;20223;-70
2023/03/11 01:45:35;;;;;;;0.97;0.80;;;18.10;39.50;;;;;;4979333;28;20483;-71
2023/03/11 01:48:01;;;;;;;1.07;0.70;;;18.10;39.50;;;;;;4986702;28;20255;-76
2023/03/11 01:50:34;;;;;;;1.10;0.83;;;18.10;39.50;;;;;;4987575;28;20448;-75
2023/03/11 01:53:01;;;;;;;0.80;0.80;;;18.10;39.40;;;;;;4990553;28;21935;-76
2023/03/11 01:55:27;;;;;;;3.47;0.97;;;18.10;39.40;;;;;;4994554;28;20474;-76
2023/03/11 01:57:54;;;;;;;0.90;0.77;;;18.10;39.50;;;;;;4998614;28;20480;-75
2023/03/11 02:00:20;;;;;;;0.70;0.60;;;18.10;39.50;;;;;;4988595;28;20479;-77
2023/03/11 02:02:54;;;;;;;1.20;0.83;;;18.10;39.40;;;;;;4982857;28;22529;-76
2023/03/11 02:05:21;;;;;;;0.80;0.80;;;18.10;39.40;;;;;;4993021;28;20427;-77
2023/03/11 02:07:49;;;;;;;1.30;0.70;;;18.10;39.40;;;;;;4990627;28;20448;-72
2023/03/11 02:10:14;;;;;;;0.90;0.80;;;18.10;39.40;;;;;;4991858;28;20439;-73
2023/03/11 02:12:41;;;;;;;0.80;0.70;;;18.10;39.40;;;;;;5021015;28;20482;-75
2023/03/11 02:15:08;;;;;;;0.80;0.60;;;18.10;39.30;;;;;;4985190;28;22454;-76
2023/03/11 02:17:36;;;;;;;1.00;0.90;;;18.10;39.40;;;;;;4995041;28;20465;-75
2023/03/11 02:20:28;;;;;;;0.87;0.70;;;18.10;39.30;;;;;;4984104;28;20466;-73
2023/03/11 02:22:56;;;;;;;0.93;0.70;;;18.10;39.40;;;;;;4981648;28;20435;-72
2023/03/11 02:25:33;;;;;;;1.00;0.90;;;18.00;39.20;;;;;;4994775;28;20473;-72
2023/03/11 02:28:01;;;;;;;1.20;0.90;;;18.10;39.30;;;;;;4996147;28;20493;-75
2023/03/11 02:30:29;;;;;;;0.80;0.70;;;18.10;39.40;;;;;;4985991;28;20556;-76
2023/03/11 02:32:55;;;;;;;0.97;0.67;;;18.00;39.20;;;;;;4996727;28;20565;-75
2023/03/11 02:35:21;;;;;;;0.70;0.70;;;18.00;39.60;;;;;;4996460;28;20496;-76
2023/03/11 02:37:50;;;;;;;1.00;0.80;;;18.10;39.40;;;;;;4992397;28;20472;-76
2023/03/11 02:40:26;;;;;;;0.70;0.70;;;18.00;39.30;;;;;;4987920;28;21232;-76
2023/03/11 02:42:58;;;;;;;0.60;0.60;;;18.00;39.20;;;;;;4975756;28;20431;-72
2023/03/11 02:45:25;;;;;;;0.80;0.80;;;18.10;39.40;;;;;;4982735;28;21388;-76
2023/03/11 02:47:57;;;;;;;1.00;0.90;;;18.00;39.20;;;;;;4988394;28;20466;-76
2023/03/11 02:50:24;;;;;;;0.77;0.63;;;18.00;39.20;;;;;;4986188;28;20464;-76
2023/03/11 02:52:50;;;;;;;0.93;0.80;;;18.10;39.30;;;;;;4990552;28;20831;-76
2023/03/11 02:55:19;;;;;;;1.10;0.70;;;18.00;39.20;;;;;;4989077;28;20424;-75
2023/03/11 02:57:46;;;;;;;0.80;0.70;;;18.00;39.20;;;;;;4989198;28;20489;-76
2023/03/11 03:00:14;;;;;;;2.60;0.80;;;18.00;39.30;;;;;;4984250;28;20477;-76
2023/03/11 03:02:40;;;;;;;0.90;0.90;;;18.00;39.20;;;;;;4984432;28;20480;-76
2023/03/11 03:05:07;;;;;;;0.80;0.70;;;18.00;39.20;;;;;;4992991;28;20461;-76
2023/03/11 03:07:33;;;;;;;0.80;0.77;;;18.00;39.20;;;;;;4991619;28;20960;-76
2023/03/11 03:09:58;;;;;;;1.00;0.90;;;18.00;39.20;;;;;;4993277;28;20518;-75
2023/03/11 03:12:24;;;;;;;0.87;0.80;;;18.00;39.20;;;;;;4986835;28;20587;-76
2023/03/11 03:14:50;;;;;;;1.00;0.70;;;18.00;39.20;;;;;;4979870;28;20250;-75
2023/03/11 03:17:15;;;;;;;0.70;0.70;;;18.00;39.20;;;;;;4987486;28;20572;-76
2023/03/11 03:19:41;;;;;;;0.97;0.87;;;18.00;39.20;;;;;;4986478;28;20231;-75
2023/03/11 03:22:06;;;;;;;1.00;0.80;;;18.00;39.20;;;;;;4993669;28;20232;-76
2023/03/11 03:24:32;;;;;;;0.90;0.80;;;18.00;39.20;;;;;;4982594;28;20316;-75
2023/03/11 03:26:57;;;;;;;0.70;0.60;;;18.00;39.20;;;;;;4989777;28;20973;-75
2023/03/11 03:29:23;;;;;;;0.93;0.87;;;18.00;39.20;;;;;;4988181;28;20563;-75
2023/03/11 03:31:48;;;;;;;0.80;0.77;;;18.00;39.20;;;;;;4985903;28;20237;-73
2023/03/11 03:34:14;;;;;;;0.93;0.80;;;18.00;39.20;;;;;;4985305;28;20306;-76
2023/03/11 03:36:40;;;;;;;0.80;0.70;;;18.00;39.20;;;;;;4981538;28;20347;-74
2023/03/11 03:39:06;;;;;;;0.80;0.80;;;18.00;39.10;;;;;;4997794;28;20231;-75
2023/03/11 03:41:31;;;;;;;0.70;0.70;;;18.00;39.20;;;;;;4986760;28;20224;-75
2023/03/11 03:43:57;;;;;;;2.33;0.70;;;18.00;39.80;;;;;;4982478;28;20472;-75
2023/03/11 03:46:22;;;;;;;1.20;0.70;;;18.00;39.20;;;;;;4979607;28;20779;-72
2023/03/11 03:48:48;;;;;;;0.80;0.80;;;18.00;39.20;;;;;;4989238;28;20814;-76
2023/03/11 03:51:14;;;;;;;0.80;0.70;;;18.00;39.10;;;;;;4982704;28;20216;-76
2023/03/11 03:53:41;;;;;;;1.10;0.77;;;18.00;39.10;;;;;;4979575;28;20215;-76
2023/03/11 03:56:09;;;;;;;0.90;0.70;;;18.00;39.20;;;;;;4988555;28;20453;-76
2023/03/11 03:58:34;;;;;;;1.00;0.90;;;18.00;39.20;;;;;;4980699;28;20466;-75
2023/03/11 04:01:00;;;;;;;0.90;0.70;;;18.00;39.20;;;;;;4990153;28;20468;-74
2023/03/11 04:03:27;;;;;;;0.80;0.70;;;18.00;39.10;;;;;;4994774;28;20219;-72
2023/03/11 04:05:53;;;;;;;0.80;0.77;;;18.00;39.20;;;;;;5001470;28;20618;-76
2023/03/11 04:08:19;;;;;;;0.90;0.60;;;18.00;39.10;;;;;;4994517;28;20528;-73
2023/03/11 04:10:54;;;;;;;2.07;1.80;;;18.00;39.10;;;;;;4990667;28;20468;-76
2023/03/11 04:13:21;;;;;;;1.87;0.63;;;18.00;39.10;;;;;;4991500;28;20223;-72
2023/03/11 04:15:47;;;;;;;0.80;0.70;;;18.00;39.20;;;;;;4984830;28;20511;-76
2023/03/11 04:18:12;;;;;;;0.80;0.70;;;18.00;39.20;;;;;;4993054;28;20446;-75
2023/03/11 04:20:38;;;;;;;1.30;1.00;;;18.00;39.10;;;;;;4990318;28;20219;-75
2023/03/11 04:23:04;;;;;;;0.73;0.70;;;18.00;39.10;;;;;;4996245;28;20234;-75
2023/03/11 04:25:29;;;;;;;1.10;1.00;;;18.00;39.10;;;;;;4989944;28;20250;-74
2023/03/11 04:27:55;;;;;;;0.60;0.60;;;18.00;39.20;;;;;;4991520;28;20243;-74
2023/03/11 04:30:20;;;;;;;1.43;0.80;;;18.00;39.10;;;;;;4980281;28;20302;-75
2023/03/11 04:32:46;;;;;;;0.73;0.73;;;18.00;39.20;;;;;;4996683;28;21246;-77
2023/03/11 04:35:11;;;;;;;0.97;0.60;;;18.00;39.10;;;;;;4995828;28;20973;-76
2023/03/11 04:37:37;;;;;;;1.30;0.87;;;18.00;39.10;;;;;;5005821;28;20314;-77
2023/03/11 04:40:04;;;;;;;1.77;0.80;;;18.00;39.10;;;;;;4990967;28;20232;-71
2023/03/11 04:42:30;;;;;;;0.80;0.70;;;18.00;39.10;;;;;;4998079;28;20215;-77
2023/03/11 04:44:55;;;;;;;1.17;0.90;;;18.00;39.10;;;;;;4977715;28;20534;-73
2023/03/11 04:47:21;;;;;;;0.80;0.77;;;18.00;39.10;;;;;;4992835;28;20247;-73
2023/03/11 04:49:47;;;;;;;0.90;0.87;;;18.00;39.10;;;;;;4999645;28;20627;-75
2023/03/11 04:52:12;;;;;;;0.90;0.80;;;18.00;39.00;;;;;;4998140;28;20262;-74
2023/03/11 04:54:38;;;;;;;0.70;0.60;;;18.00;39.10;;;;;;4994758;28;20227;-74
2023/03/11 04:57:03;;;;;;;0.80;0.80;;;18.10;39.10;;;;;;4988567;28;20228;-74
2023/03/11 04:59:29;;;;;;;0.93;0.77;;;18.10;39.10;;;;;;4987229;28;20255;-74
2023/03/11 05:01:54;;;;;;;0.70;0.60;;;18.10;39.20;;;;;;4996055;28;20223;-75
2023/03/11 05:04:20;;;;;;;0.80;0.70;;;18.10;39.10;;;;;;4992513;28;20853;-75
2023/03/11 05:06:45;;;;;;;1.20;0.70;;;18.10;39.50;;;;;;4992840;28;20220;-73
2023/03/11 05:09:11;;;;;;;0.90;0.70;;;18.10;39.20;;;;;;4983909;28;20223;-73
2023/03/11 05:11:36;;;;;;;0.80;0.70;;;18.10;39.10;;;;;;4986304;28;20624;-71
2023/03/11 05:14:02;;;;;;;1.00;0.80;;;18.10;39.10;;;;;;4980727;28;20687;-78
2023/03/11 05:16:28;;;;;;;0.80;0.80;;;18.10;39.10;;;;;;4991914;28;20219;-73
2023/03/11 05:18:53;;;;;;;0.73;0.73;;;18.10;39.20;;;;;;4995353;28;20242;-80
2023/03/11 05:21:19;;;;;;;0.70;0.70;;;18.10;39.10;;;;;;4995265;28;20306;-75
2023/03/11 05:23:44;;;;;;;0.93;0.80;;;18.10;39.10;;;;;;4990749;28;20227;-78
2023/03/11 05:26:10;;;;;;;0.90;0.80;;;18.10;39.10;;;;;;4993421;28;20254;-77
2023/03/11 05:28:36;;;;;;;0.73;0.70;;;18.10;39.10;;;;;;4984699;28;20223;-77
2023/03/11 05:31:01;;;;;;;0.80;0.73;;;18.10;39.10;;;;;;4996949;28;20461;-77
2023/03/11 05:33:33;;;;;;;1.13;0.60;;;18.10;39.00;;;;;;4994654;28;20684;-75
2023/03/11 05:36:04;;;;;;;0.70;0.60;;;18.10;39.00;;;;;;5001921;28;20230;-76
2023/03/11 05:38:29;;;;;;;1.63;0.80;;;18.10;39.00;;;;;;4997135;28;20458;-76
2023/03/11 05:40:55;;;;;;;0.87;0.87;;;18.10;39.10;;;;;;5001473;28;20439;-74
2023/03/11 05:43:20;;;;;;;1.20;1.00;;;18.10;39.00;;;;;;4992579;28;20756;-73
2023/03/11 05:45:46;;;;;;;1.33;0.80;;;18.10;39.00;;;;;;4991818;28;21107;-76
2023/03/11 05:48:11;;;;;;;0.80;0.77;;;18.10;39.00;;;;;;4983209;28;20704;-72
2023/03/11 05:50:37;;;;;;;1.00;0.90;;;18.10;39.00;;;;;;4978221;28;20231;-76
2023/03/11 05:53:02;;;;;;;1.07;0.90;;;18.10;39.00;;;;;;4998791;28;20215;-75
2023/03/11 05:55:28;;;;;;;0.90;0.80;;;18.10;39.00;;;;;;4993429;28;20223;-71
2023/03/11 05:57:54;;;;;;;0.80;0.73;;;18.10;39.10;;;;;;4995236;28;20231;-74
2023/03/11 06:00:20;;;;;;;0.80;0.70;;;18.10;39.00;;;;;;4992841;28;20235;-75
2023/03/11 06:02:45;;;;;;;0.70;0.67;;;18.10;39.00;;;;;;4993160;28;20281;-75
2023/03/11 06:05:11;;;;;;;0.80;0.70;;;18.10;38.90;;;;;;4996799;28;20423;-76
2023/03/11 06:07:36;;;;;;;0.80;0.70;;;18.10;39.00;;;;;;4998424;28;20314;-75
2023/03/11 06:10:03;;;;;;;0.77;0.73;;;18.10;38.90;;;;;;4992202;28;20297;-76
2023/03/11 06:12:28;;;;;;;0.80;0.80;;;18.10;39.00;;;;;;4983335;28;20327;-71
2023/03/11 06:14:54;;;;;;;2.40;0.80;;;18.10;39.00;;;;;;4988945;28;20473;-74
2023/03/11 06:17:19;;;;;;;1.17;0.90;;;18.10;39.00;;;;;;4983316;28;20218;-74
2023/03/11 06:19:45;;;;;;;0.80;0.70;;;18.10;39.00;;;;;;4996080;28;20231;-76
2023/03/11 06:22:10;;;;;;;0.90;0.80;;;18.10;38.90;;;;;;4986044;28;20220;-75
2023/03/11 06:24:36;;;;;;;1.13;1.03;;;18.10;39.00;;;;;;4990552;28;20219;-75
2023/03/11 06:27:02;;;;;;;1.17;0.70;;;18.10;38.90;;;;;;4990438;28;20230;-74
2023/03/11 06:29:28;;;;;;;1.00;0.60;;;18.10;38.90;;;;;;4986288;28;20227;-73
2023/03/11 06:31:54;;;;;;;0.70;0.67;;;18.10;38.90;;;;;;4995055;28;20231;-74
2023/03/11 06:34:19;;;;;;;0.90;0.70;;;18.10;38.90;;;;;;4979939;28;20423;-77
2023/03/11 06:36:45;;;;;;;0.80;0.70;;;18.10;38.80;;;;;;4991798;28;20425;-72
2023/03/11 06:39:14;;;;;;;0.83;0.70;;;18.10;38.80;;;;;;4996346;28;20239;-72
2023/03/11 06:41:40;;;;;;;1.13;1.03;;;18.10;38.90;;;;;;4984382;28;20974;-78
2023/03/11 06:44:06;;;;;;;0.80;0.70;;;18.10;38.80;;;;;;4982590;28;20494;-78
2023/03/11 06:46:31;;;;;;;1.00;0.80;;;18.10;38.80;;;;;;4997344;28;20487;-76
2023/03/11 06:48:57;;;;;;;2.10;1.00;;;18.10;38.80;;;;;;4996331;28;20226;-75
2023/03/11 06:51:23;;;;;;;1.93;0.80;;;18.10;38.80;;;;;;4994379;28;20231;-77
2023/03/11 06:53:50;;;;;;;0.93;0.70;;;18.20;38.80;;;;;;4989682;28;20223;-75
2023/03/11 06:56:16;;;;;;;0.83;0.70;;;18.10;38.80;;;;;;4997364;28;20233;-74
2023/03/11 06:58:42;;;;;;;1.00;0.90;;;18.10;38.80;;;;;;4992874;28;20465;-71
2023/03/11 07:01:13;;;;;;;0.80;0.80;;;18.10;38.80;;;;;;4993124;28;20229;-77
2023/03/11 07:03:38;;;;;;;0.87;0.73;;;18.10;38.80;;;;;;4994503;28;20464;-78
2023/03/11 07:06:04;;;;;;;0.93;0.80;;;18.20;38.80;;;;;;4993876;28;20457;-80
2023/03/11 07:08:30;;;;;;;0.90;0.80;;;18.10;38.80;;;;;;4995569;28;20235;-80
2023/03/11 07:11:08;;;;;;;0.80;0.80;;;18.10;38.80;;;;;;4993553;28;20681;-76
2023/03/11 07:13:34;;;;;;;0.73;0.70;;;18.10;38.70;;;;;;4992819;28;20223;-78
2023/03/11 07:16:05;;;;;;;1.00;0.90;;;18.20;39.60;;;;;;4982511;28;20527;-78
2023/03/11 07:18:32;;;;;;;0.80;0.70;;;18.20;38.80;;;;;;4986021;28;20470;-78
2023/03/11 07:20:58;;;;;;;0.90;0.80;;;18.20;38.80;;;;;;4986188;28;20479;-78
2023/03/11 07:23:23;;;;;;;0.80;0.70;;;18.20;38.70;;;;;;4993435;28;20444;-81
2023/03/11 07:25:50;;;;;;;1.30;0.90;;;18.20;38.60;;;;;;4985694;28;20230;-77
2023/03/11 07:28:16;;;;;;;0.90;0.77;;;18.20;38.60;;;;;;4979810;28;20226;-77
2023/03/11 07:30:43;;;;;;;1.10;0.70;;;18.30;38.70;;;;;;4987433;28;20452;-75
2023/03/11 07:33:08;;;;;;;0.80;0.70;;;18.30;38.60;;;;;;4986135;28;20278;-74
2023/03/11 07:35:34;;;;;;;0.80;0.73;;;18.30;38.60;;;;;;4983126;28;20442;-77
2023/03/11 07:38:00;;;;;;;1.50;0.73;;;18.30;38.60;;;;;;4995294;28;20683;-74
2023/03/11 07:40:26;;;;;;;0.80;0.70;;;18.30;38.70;;;;;;4990100;28;20458;-78
2023/03/11 07:42:51;;;;;;;0.80;0.70;;;18.30;38.70;;;;;;4995035;28;20227;-73
2023/03/11 07:45:17;;;;;;;1.00;0.90;;;18.30;38.70;;;;;;4984731;28;20708;-74
2023/03/11 07:47:42;;;;;;;0.93;0.80;;;18.30;38.80;;;;;;4982595;28;20638;-73
2023/03/11 07:50:08;;;;;;;0.90;0.70;;;18.30;38.80;;;;;;4995668;28;20234;-76
2023/03/11 07:52:34;;;;;;;0.70;0.70;;;18.30;38.80;;;;;;4984117;28;20247;-76
2023/03/11 07:54:59;;;;;;;0.93;0.77;;;18.30;38.80;;;;;;4996348;28;20564;-76
2023/03/11 07:57:25;;;;;;;0.83;0.80;;;18.30;38.90;;;;;;4985875;28;20718;-76
2023/03/11 07:59:51;;;;;;;1.63;0.73;;;18.30;38.90;;;;;;4997181;28;20259;-75
2023/03/11 08:02:16;;;;;;;0.73;0.73;;;18.30;38.90;;;;;;4983209;28;20426;-76
2023/03/11 08:04:41;;;;;;;1.03;0.80;;;18.30;38.90;;;;;;4995123;28;20225;-67
2023/03/11 08:07:07;;;;;;;1.10;0.80;;;18.30;38.90;;;;;;4987848;28;20312;-74
2023/03/11 08:09:36;;;;;;;1.00;0.80;;;18.20;38.80;;;;;;4992175;28;20347;-77
2023/03/11 08:12:01;;;;;;;1.10;0.83;;;18.20;38.80;;;;;;4987483;28;20237;-74
2023/03/11 08:14:27;;;;;;;1.00;0.83;;;18.20;38.80;;;;;;4984293;28;20461;-74
2023/03/11 08:16:52;;;;;;;0.80;0.80;;;18.20;38.80;;;;;;4988380;28;20354;-75
2023/03/11 08:19:18;;;;;;;0.90;0.80;;;18.20;38.80;;;;;;4990114;28;20247;-76
2023/03/11 08:21:43;;;;;;;2.80;0.90;;;18.20;38.90;;;;;;4975766;28;20251;-73
2023/03/11 08:24:12;;;;;;;1.00;0.90;;;18.20;38.90;;;;;;4978116;28;20269;-75
2023/03/11 08:26:38;;;;;;;0.77;0.70;;;18.20;38.80;;;;;;4975651;28;20235;-72
2023/03/11 08:29:03;;;;;;;0.87;0.83;;;18.20;38.80;;;;;;4967546;28;20465;-74
2023/03/11 08:31:31;;;;;;;0.80;0.80;;;18.20;38.80;;;;;;4986515;28;20966;-73
2023/03/11 08:33:59;;;;;;;0.87;0.80;;;18.20;38.70;;;;;;4990148;28;20277;-75
2023/03/11 08:36:25;;;;;;;1.80;0.70;;;18.30;38.90;;;;;;4994144;28;20547;-75
2023/03/11 08:38:51;;;;;;;0.90;0.80;;;18.30;38.80;;;;;;4993428;28;20477;-75
2023/03/11 08:41:17;;;;;;;1.00;0.80;;;18.20;38.70;;;;;;4993864;28;20258;-76
2023/03/11 08:43:43;;;;;;;0.87;0.77;;;18.20;38.70;;;;;;4991691;28;20220;-74
2023/03/11 08:46:21;;;;;;;1.70;1.00;;;18.20;38.70;;;;;;4983709;28;21063;-70
2023/03/11 08:48:46;;;;;;;0.70;0.70;;;18.20;38.70;;;;;;4967660;28;20466;-74
2023/03/11 08:51:13;;;;;;;1.00;0.90;;;18.30;38.70;;;;;;4983273;28;20544;-73
2023/03/11 08:53:38;;;;;;;0.90;0.70;;;18.30;38.70;;;;;;4989636;28;20255;-74
2023/03/11 08:56:04;;;;;;;0.87;0.80;;;18.30;38.70;;;;;;4989939;28;20817;-73
2023/03/11 08:58:30;;;;;;;0.83;0.70;;;18.30;38.70;;;;;;4995506;28;20230;-77
2023/03/11 09:00:56;;;;;;;1.00;0.80;;;18.30;38.70;;;;;;4995860;28;20471;-77
2023/03/11 09:03:22;;;;;;;0.80;0.77;;;18.30;38.80;;;;;;4986579;28;20227;-75
2023/03/11 09:05:47;;;;;;;1.00;0.90;;;18.30;38.70;;;;;;4994598;28;20758;-77
2023/03/11 09:08:13;;;;;;;0.70;0.70;;;18.30;38.70;;;;;;4996123;28;20216;-71
2023/03/11 09:10:39;;;;;;;1.20;0.97;;;18.30;38.70;;;;;;4999742;28;20223;-77
2023/03/11 09:13:05;;;;;;;1.83;0.77;;;18.30;38.80;;;;;;4992672;28;21009;-78
2023/03/11 09:15:30;;;;;;;1.00;0.87;;;18.30;38.70;;;;;;4999769;28;20223;-76
2023/03/11 09:17:56;;;;;;;1.10;1.03;;;18.30;38.70;;;;;;4979107;28;20232;-74
2023/03/11 09:20:21;;;;;;;1.43;0.87;;;18.30;38.70;;;;;;4991606;28;20850;-76
2023/03/11 09:22:47;;;;;;;0.80;0.80;;;18.30;38.70;;;;;;4997010;28;20263;-76
2023/03/11 09:25:13;;;;;;;0.77;0.67;;;18.30;38.70;;;;;;4992837;28;20216;-75
2023/03/11 09:27:40;;;;;;;1.03;0.80;;;18.30;38.70;;;;;;4995699;28;20588;-75
2023/03/11 09:30:06;;;;;;;1.40;0.90;;;18.30;38.70;;;;;;4988303;28;20461;-76
2023/03/11 09:32:31;;;;;;;1.30;1.20;;;18.30;38.80;;;;;;4986783;28;21027;-76
2023/03/11 09:34:58;;;;;;;1.80;1.03;;;18.30;38.60;;;;;;4991316;28;20495;-75
2023/03/11 09:37:24;;;;;;;0.90;0.70;;;18.30;38.60;;;;;;4990399;28;20695;-76
2023/03/11 09:39:49;;;;;;;0.83;0.77;;;18.30;38.60;;;;;;4997421;28;20484;-74
2023/03/11 09:42:41;;;;;;;1.13;1.00;;;18.30;38.60;;;;;;4991214;28;20683;-71
2023/03/11 09:45:26;;;;;;;0.70;0.60;;;18.30;38.60;;;;;;4996815;28;20238;-69
2023/03/11 09:48:29;;;;;;;0.93;0.73;;;18.30;38.70;;;;;;4988735;28;20463;-75
2023/03/11 09:51:14;;;;;;;0.70;0.70;;;18.30;38.60;;;;;;4992604;28;21074;-73
2023/03/11 09:53:43;;;;;;;1.67;0.70;;;18.30;38.60;;;;;;4996205;28;20465;-69
2023/03/11 09:56:18;;;;;;;0.70;0.60;;;18.30;38.60;;;;;;4991144;28;20810;-74
2023/03/11 09:58:50;;;;;;;0.93;0.83;;;18.30;38.70;;;;;;5011752;28;20938;-73
2023/03/11 10:01:21;;;;;;;1.10;0.80;;;18.30;38.70;;;;;;4993087;28;20451;-72
2023/03/11 10:03:48;;;;;;;0.80;0.80;;;18.30;38.70;;;;;;4989537;28;20461;-72
2023/03/11 10:06:29;;;;;;;3.43;0.87;;;18.30;38.60;;;;;;5000440;28;20447;-72
2023/03/11 10:09:33;;;;;;;3.53;0.80;;;18.30;38.60;;;;;;4999734;28;20460;-73
2023/03/11 10:12:07;;;;;;;1.43;1.10;;;18.30;38.60;;;;;;4996712;28;20512;-73
2023/03/11 10:14:56;;;;;;;1.30;1.00;;;18.30;38.60;;;;;;5003041;28;20449;-74
2023/03/11 10:18:00;;;;;;;1.00;0.90;;;18.30;38.60;;;;;;4987101;28;20933;-74
2023/03/11 10:20:46;;;;;;;2.60;0.90;;;18.30;38.60;;;;;;4997400;28;20544;-71
2023/03/11 10:23:21;;;;;;;1.23;0.83;;;18.30;38.60;;;;;;4989902;28;20457;-71
2023/03/11 10:26:05;;;;;;;1.70;0.80;;;18.30;38.60;;;;;;4993989;28;20446;-71
2023/03/11 10:28:35;;;;;;;0.97;0.77;;;18.30;38.50;;;;;;4997058;28;20539;-71
2023/03/11 10:31:28;;;;;;;0.90;0.90;;;18.30;38.60;;;;;;4994470;28;20488;-71
2023/03/11 10:34:03;;;;;;;1.70;0.93;;;18.30;38.50;;;;;;5002622;28;20505;-72
2023/03/11 10:36:39;;;;;;;1.87;0.93;;;18.30;38.60;;;;;;4997764;28;20527;-72
2023/03/11 10:39:08;;;;;;;1.00;0.70;;;18.40;38.60;;;;;;4990777;28;20976;-72
2023/03/11 10:41:53;;;;;;;1.67;0.90;;;18.30;38.60;;;;;;4991170;28;20525;-72
2023/03/11 10:44:24;;;;;;;1.23;1.10;;;18.30;38.50;;;;;;4987503;28;21121;-71
2023/03/11 10:46:49;;;;;;;1.17;0.83;;;18.30;38.60;;;;;;4998498;28;20472;-71
2023/03/11 10:49:17;;;;;;;0.83;0.70;;;18.30;38.60;;;;;;5001216;28;20473;-71
2023/03/11 10:51:48;;;;;;;1.00;0.80;;;18.30;38.60;;;;;;4996388;28;20216;-72
2023/03/11 10:54:27;;;;;;;1.10;0.90;;;18.30;38.60;;;;;;4993223;28;20480;-71
2023/03/11 10:56:56;;;;;;;1.23;0.80;;;18.30;38.60;;;;;;4993274;28;20436;-71
2023/03/11 10:59:46;;;;;;;1.53;0.90;;;18.30;38.50;;;;;;4995292;28;20480;-72
2023/03/11 11:02:24;;;;;;;1.70;0.87;;;18.30;38.50;;;;;;4994564;28;20430;-72
2023/03/11 11:05:04;;;;;;;1.00;0.80;;;18.30;38.50;;;;;;4990912;28;20507;-71
2023/03/11 11:07:33;;;;;;;3.93;1.00;;;18.30;38.50;;;;;;4986725;28;20536;-72
2023/03/11 11:10:29;;;;;;;0.80;0.70;;;18.30;38.60;;;;;;4992275;28;20504;-72
2023/03/11 11:13:15;;;;;;;0.90;0.80;;;18.30;38.60;;;;;;4990982;28;20454;-71
2023/03/11 11:16:15;;;;;;;1.53;0.70;;;18.30;38.50;;;;;;5000262;28;20816;-72
2023/03/11 11:18:49;;;;;;;1.80;1.20;;;18.30;38.60;;;;;;4993874;28;20484;-72
2023/03/11 11:21:29;;;;;;;0.80;0.70;;;18.30;38.60;;;;;;4996243;28;20448;-71
2023/03/11 11:24:22;;;;;;;0.93;0.83;;;18.30;38.60;;;;;;4985044;28;20464;-72
2023/03/11 11:27:23;;;;;;;2.10;0.67;;;18.30;38.50;;;;;;4995448;28;20600;-72
2023/03/11 11:30:13;;;;;;;1.30;1.10;;;18.30;38.50;;;;;;4993637;28;20445;-72
2023/03/11 11:32:39;;;;;;;1.20;0.80;;;18.30;38.50;;;;;;4996713;28;20460;-72
2023/03/11 11:35:06;;;;;;;1.70;0.90;;;18.30;38.60;;;;;;4998517;28;20478;-72
2023/03/11 11:37:34;;;;;;;1.00;0.90;;;18.30;38.60;;;;;;5000058;28;20267;-72
2023/03/11 11:40:11;;;;;;;1.00;0.90;;;18.30;38.50;;;;;;4998180;28;20484;-72
2023/03/11 11:42:38;;;;;;;0.90;0.70;;;18.30;38.50;;;;;;4993890;28;20833;-72
2023/03/11 11:45:26;;;;;;;1.00;0.90;;;18.30;38.50;;;;;;4996360;28;20432;-72
2023/03/11 11:47:56;;;;;;;1.00;0.90;;;18.40;38.60;;;;;;4993830;28;20818;-72
2023/03/11 11:50:41;;;;;;;0.90;0.80;;;18.30;38.60;;;;;;4995178;28;20519;-72
2023/03/11 11:53:24;;;;;;;0.73;0.60;;;18.30;38.50;;;;;;4992725;28;20451;-72
2023/03/11 11:55:52;;;;;;;1.47;0.73;;;18.30;38.60;;;;;;4999849;28;20495;-72
2023/03/11 11:58:19;;;;;;;1.80;0.90;;;18.30;38.60;;;;;;4997948;28;20472;-72
2023/03/11 12:01:05;;;;;;;1.10;0.63;;;18.40;38.70;;;;;;4999951;28;20454;-72
2023/03/11 12:04:10;;;;;;;1.67;0.70;;;18.40;38.60;;;;;;4997349;28;20471;-71
2023/03/11 12:07:19;;;;;;;0.80;0.70;;;18.30;38.60;;;;;;4993506;28;20979;-72
2023/03/11 12:09:59;;;;;;;0.87;0.70;;;18.30;38.50;;;;;;4994473;28;20435;-70
2023/03/11 12:12:39;;;;;;;1.17;1.03;;;18.30;39.30;;;;;;4998848;28;20439;-73
2023/03/11 12:15:23;;;;;;;1.00;0.70;;;18.30;38.60;;;;;;4999937;28;20460;-71
2023/03/11 12:17:51;;;;;;;1.00;0.80;;;18.30;38.70;;;;;;4996831;28;20488;-72
2023/03/11 12:20:33;;;;;;;0.90;0.70;;;18.30;38.60;;;;;;4983383;28;20455;-70
2023/03/11 12:23:36;;;;;;;2.90;0.70;;;18.40;38.70;;;;;;4996990;28;20937;-71
2023/03/11 12:26:25;;;;;;;0.87;0.70;;;18.40;38.70;;;;;;4985712;28;20872;-71
2023/03/11 12:28:55;;;;;;;0.80;0.70;;;18.40;38.70;;;;;;5000126;28;20465;-71
2023/03/11 12:31:25;;;;;;;13.27;1.03;;;18.30;38.60;;;;;;4993316;28;20812;-71
2023/03/11 12:33:58;;;;;;;1.47;1.37;;;18.40;38.70;;;;;;4990284;28;20465;-71
2023/03/11 12:36:37;;;;;;;0.80;0.63;;;18.40;38.70;;;;;;4998002;28;20469;-71
2023/03/11 12:39:19;;;;;;;0.90;0.70;;;18.40;38.70;;;;;;4990539;28;20564;-71
2023/03/11 12:41:45;;;;;;;0.93;0.80;;;18.40;38.60;;;;;;4990735;28;20459;-73
2023/03/11 12:44:21;;;;;;;1.13;0.70;;;18.30;38.60;;;;;;4981252;28;20503;-72
2023/03/11 12:46:53;;;;;;;1.10;1.00;;;18.40;38.60;;;;;;4991637;28;20456;-72
2023/03/11 12:49:24;;;;;;;1.23;0.80;;;18.40;38.60;;;;;;4985440;28;20481;-72
2023/03/11 12:52:04;;;;;;;1.00;0.80;;;18.40;38.50;;;;;;4996018;28;20562;-72
2023/03/11 12:54:35;;;;;;;3.53;0.70;;;18.40;38.60;;;;;;4991710;28;20436;-72
2023/03/11 12:57:21;;;;;;;1.77;0.80;;;18.40;38.60;;;;;;4982360;28;20494;-72
2023/03/11 13:00:08;;;;;;;0.90;0.70;;;18.40;38.60;;;;;;4996990;28;20439;-71